sensor_id;sensor_type;location;lat;lon;timestamp;temperature;humidity
60727;DHT22;46577;49.004;12.120;2022-11-14T00:02:08;5.40;99.90
60727;DHT22;46577;49.004;12.120;2022-11-14T00:04:34;5.30;99.90
60727;DHT22;46577;49.004;12.120;2022-11-14T00:07:00;5.20;99.90
60727;DHT22;46577;49.004;12.120;2022-11-14T00:09:26;5.20;99.90
60727;DHT22;46577;49.004;12.120;2022-11-14T00:11:52;5.20;99.90
60727;DHT22;46577;49.004;12.120;2022-11-14T00:14:18;5.30;99.90
60727;DHT22;46577;49.004;12.120;2022-11-14T00:16:43;5.20;99.90
60727;DHT22;46577;49.004;12.120;2022-11-14T00:19:09;5.20;99.90
60727;DHT22;46577;49.004;12.120;2022-11-14T00:21:35;5.20;99.90
60727;DHT22;46577;49.004;12.120;2022-11-14T00:24:00;5.10;99.90
60727;DHT22;46577;49.004;12.120;2022-11-14T00:26:26;5.10;99.90
60727;DHT22;46577;49.004;12.120;2022-11-14T00:28:53;5.10;99.90
60727;DHT22;46577;49.004;12.120;2022-11-14T00:31:19;5.10;99.90
60727;DHT22;46577;49.004;12.120;2022-11-14T00:33:45;5.10;99.90
60727;DHT22;46577;49.004;12.120;2022-11-14T00:36:11;5.10;99.90
60727;DHT22;46577;49.004;12.120;2022-11-14T00:38:36;5.20;99.90
60727;DHT22;46577;49.004;12.120;2022-11-14T00:41:02;5.10;99.90
60727;DHT22;46577;49.004;12.120;2022-11-14T00:43:27;5.10;99.90
60727;DHT22;46577;49.004;12.120;2022-11-14T00:45:53;5.10;99.90
60727;DHT22;46577;49.004;12.120;2022-11-14T00:48:19;5.00;99.90
60727;DHT22;46577;49.004;12.120;2022-11-14T00:50:44;5.00;99.90
60727;DHT22;46577;49.004;12.120;2022-11-14T00:53:10;5.00;99.90
60727;DHT22;46577;49.004;12.120;2022-11-14T00:55:36;5.00;99.90
60727;DHT22;46577;49.004;12.120;2022-11-14T00:58:02;4.90;99.90
60727;DHT22;46577;49.004;12.120;2022-11-14T01:00:27;4.80;99.90
60727;DHT22;46577;49.004;12.120;2022-11-14T01:02:53;4.80;99.90
60727;DHT22;46577;49.004;12.120;2022-11-14T01:05:21;4.80;99.90
60727;DHT22;46577;49.004;12.120;2022-11-14T01:07:48;4.80;99.90
60727;DHT22;46577;49.004;12.120;2022-11-14T01:10:14;4.70;99.90
60727;DHT22;46577;49.004;12.120;2022-11-14T01:12:40;4.70;99.90
60727;DHT22;46577;49.004;12.120;2022-11-14T01:15:06;4.60;99.90
60727;DHT22;46577;49.004;12.120;2022-11-14T01:17:32;4.60;99.90
60727;DHT22;46577;49.004;12.120;2022-11-14T01:19:58;4.50;99.90
60727;DHT22;46577;49.004;12.120;2022-11-14T01:22:23;4.60;99.90
60727;DHT22;46577;49.004;12.120;2022-11-14T01:24:49;4.70;99.90
60727;DHT22;46577;49.004;12.120;2022-11-14T01:27:14;4.70;99.90
60727;DHT22;46577;49.004;12.120;2022-11-14T01:29:40;4.70;99.90
60727;DHT22;46577;49.004;12.120;2022-11-14T01:32:06;4.70;99.90
60727;DHT22;46577;49.004;12.120;2022-11-14T01:34:31;4.70;99.90
60727;DHT22;46577;49.004;12.120;2022-11-14T01:36:57;4.70;99.90
60727;DHT22;46577;49.004;12.120;2022-11-14T01:39:24;4.70;99.90
60727;DHT22;46577;49.004;12.120;2022-11-14T01:41:50;4.70;99.90
60727;DHT22;46577;49.004;12.120;2022-11-14T01:44:36;4.70;99.90
60727;DHT22;46577;49.004;12.120;2022-11-14T01:47:02;4.70;99.90
60727;DHT22;46577;49.004;12.120;2022-11-14T01:49:35;4.60;99.90
60727;DHT22;46577;49.004;12.120;2022-11-14T01:54:33;4.60;99.90
60727;DHT22;46577;49.004;12.120;2022-11-14T01:57:02;4.60;99.90
60727;DHT22;46577;49.004;12.120;2022-11-14T01:59:37;4.60;99.90
60727;DHT22;46577;49.004;12.120;2022-11-14T02:02:14;4.60;99.90
60727;DHT22;46577;49.004;12.120;2022-11-14T02:04:44;4.60;99.90
60727;DHT22;46577;49.004;12.120;2022-11-14T02:07:11;4.60;99.90
60727;DHT22;46577;49.004;12.120;2022-11-14T02:09:39;5.30;99.90
60727;DHT22;46577;49.004;12.120;2022-11-14T02:12:09;4.50;99.90
60727;DHT22;46577;49.004;12.120;2022-11-14T02:14:36;4.40;99.90
60727;DHT22;46577;49.004;12.120;2022-11-14T02:17:03;4.50;99.90
60727;DHT22;46577;49.004;12.120;2022-11-14T02:19:48;4.50;99.90
60727;DHT22;46577;49.004;12.120;2022-11-14T02:22:14;4.50;99.90
60727;DHT22;46577;49.004;12.120;2022-11-14T02:24:40;4.50;99.90
60727;DHT22;46577;49.004;12.120;2022-11-14T02:27:06;4.50;99.90
60727;DHT22;46577;49.004;12.120;2022-11-14T02:29:33;4.40;99.90
60727;DHT22;46577;49.004;12.120;2022-11-14T02:32:00;4.50;99.90
60727;DHT22;46577;49.004;12.120;2022-11-14T02:34:26;4.50;99.90
60727;DHT22;46577;49.004;12.120;2022-11-14T02:36:51;4.50;99.90
60727;DHT22;46577;49.004;12.120;2022-11-14T02:39:17;4.40;99.90
60727;DHT22;46577;49.004;12.120;2022-11-14T02:41:42;4.40;99.90
60727;DHT22;46577;49.004;12.120;2022-11-14T02:44:08;4.30;99.90
60727;DHT22;46577;49.004;12.120;2022-11-14T02:46:34;4.30;99.90
60727;DHT22;46577;49.004;12.120;2022-11-14T02:48:59;4.30;99.90
60727;DHT22;46577;49.004;12.120;2022-11-14T02:51:25;4.30;99.90
60727;DHT22;46577;49.004;12.120;2022-11-14T02:53:50;4.30;99.90
60727;DHT22;46577;49.004;12.120;2022-11-14T02:56:16;4.20;99.90
60727;DHT22;46577;49.004;12.120;2022-11-14T02:58:41;4.20;99.90
60727;DHT22;46577;49.004;12.120;2022-11-14T03:01:07;4.20;99.90
60727;DHT22;46577;49.004;12.120;2022-11-14T03:03:33;4.20;99.90
60727;DHT22;46577;49.004;12.120;2022-11-14T03:06:02;4.10;99.90
60727;DHT22;46577;49.004;12.120;2022-11-14T03:08:28;4.10;99.90
60727;DHT22;46577;49.004;12.120;2022-11-14T03:10:54;4.00;99.90
60727;DHT22;46577;49.004;12.120;2022-11-14T03:13:19;3.90;99.90
60727;DHT22;46577;49.004;12.120;2022-11-14T03:15:45;3.90;99.90
60727;DHT22;46577;49.004;12.120;2022-11-14T03:18:11;4.00;99.90
60727;DHT22;46577;49.004;12.120;2022-11-14T03:20:37;4.00;99.90
60727;DHT22;46577;49.004;12.120;2022-11-14T03:23:03;3.90;99.90
60727;DHT22;46577;49.004;12.120;2022-11-14T03:25:29;3.90;99.90
60727;DHT22;46577;49.004;12.120;2022-11-14T03:27:55;4.00;99.90
60727;DHT22;46577;49.004;12.120;2022-11-14T03:30:20;3.70;99.90
60727;DHT22;46577;49.004;12.120;2022-11-14T03:32:46;3.70;99.90
60727;DHT22;46577;49.004;12.120;2022-11-14T03:35:12;3.80;99.90
60727;DHT22;46577;49.004;12.120;2022-11-14T03:37:38;3.90;99.90
60727;DHT22;46577;49.004;12.120;2022-11-14T03:40:04;3.90;99.90
60727;DHT22;46577;49.004;12.120;2022-11-14T03:42:33;4.00;99.90
60727;DHT22;46577;49.004;12.120;2022-11-14T03:44:59;3.90;99.90
60727;DHT22;46577;49.004;12.120;2022-11-14T03:47:24;3.90;99.90
60727;DHT22;46577;49.004;12.120;2022-11-14T03:49:50;4.00;99.90
60727;DHT22;46577;49.004;12.120;2022-11-14T03:52:15;3.90;99.90
60727;DHT22;46577;49.004;12.120;2022-11-14T03:54:41;4.00;99.90
60727;DHT22;46577;49.004;12.120;2022-11-14T03:57:07;3.90;99.90
60727;DHT22;46577;49.004;12.120;2022-11-14T03:59:32;4.00;99.90
60727;DHT22;46577;49.004;12.120;2022-11-14T04:01:58;3.90;99.90
60727;DHT22;46577;49.004;12.120;2022-11-14T04:04:23;3.90;99.90
60727;DHT22;46577;49.004;12.120;2022-11-14T04:06:49;3.90;99.90
60727;DHT22;46577;49.004;12.120;2022-11-14T04:09:15;3.90;99.90
60727;DHT22;46577;49.004;12.120;2022-11-14T04:11:40;4.00;99.90
60727;DHT22;46577;49.004;12.120;2022-11-14T04:14:06;4.00;99.90
60727;DHT22;46577;49.004;12.120;2022-11-14T04:16:31;3.90;99.90
60727;DHT22;46577;49.004;12.120;2022-11-14T04:18:57;3.90;99.90
60727;DHT22;46577;49.004;12.120;2022-11-14T04:21:22;3.90;99.90
60727;DHT22;46577;49.004;12.120;2022-11-14T04:23:48;3.90;99.90
60727;DHT22;46577;49.004;12.120;2022-11-14T04:26:14;3.90;99.90
60727;DHT22;46577;49.004;12.120;2022-11-14T04:28:39;3.90;99.90
60727;DHT22;46577;49.004;12.120;2022-11-14T04:31:05;3.80;99.90
60727;DHT22;46577;49.004;12.120;2022-11-14T04:33:30;3.90;99.90
60727;DHT22;46577;49.004;12.120;2022-11-14T04:35:56;3.80;99.90
60727;DHT22;46577;49.004;12.120;2022-11-14T04:38:21;3.60;99.90
60727;DHT22;46577;49.004;12.120;2022-11-14T04:40:50;3.50;99.90
60727;DHT22;46577;49.004;12.120;2022-11-14T04:43:17;3.40;99.90
60727;DHT22;46577;49.004;12.120;2022-11-14T04:45:43;3.50;99.90
60727;DHT22;46577;49.004;12.120;2022-11-14T04:48:09;3.60;99.90
60727;DHT22;46577;49.004;12.120;2022-11-14T04:50:35;3.70;99.90
60727;DHT22;46577;49.004;12.120;2022-11-14T04:53:00;3.40;99.90
60727;DHT22;46577;49.004;12.120;2022-11-14T04:55:26;3.50;99.90
60727;DHT22;46577;49.004;12.120;2022-11-14T04:57:56;3.40;99.90
60727;DHT22;46577;49.004;12.120;2022-11-14T05:00:22;3.40;99.90
60727;DHT22;46577;49.004;12.120;2022-11-14T05:02:48;3.50;99.90
60727;DHT22;46577;49.004;12.120;2022-11-14T05:05:14;3.60;99.90
60727;DHT22;46577;49.004;12.120;2022-11-14T05:07:40;3.60;99.90
60727;DHT22;46577;49.004;12.120;2022-11-14T05:10:06;3.70;99.90
60727;DHT22;46577;49.004;12.120;2022-11-14T05:12:32;3.60;99.90
60727;DHT22;46577;49.004;12.120;2022-11-14T05:14:58;3.70;99.90
60727;DHT22;46577;49.004;12.120;2022-11-14T05:17:23;3.70;99.90
60727;DHT22;46577;49.004;12.120;2022-11-14T05:19:49;3.80;99.90
60727;DHT22;46577;49.004;12.120;2022-11-14T05:22:15;3.70;99.90
60727;DHT22;46577;49.004;12.120;2022-11-14T05:24:40;3.80;99.90
60727;DHT22;46577;49.004;12.120;2022-11-14T05:27:06;3.80;99.90
60727;DHT22;46577;49.004;12.120;2022-11-14T05:29:31;3.80;99.90
60727;DHT22;46577;49.004;12.120;2022-11-14T05:31:57;3.70;99.90
60727;DHT22;46577;49.004;12.120;2022-11-14T05:34:23;3.70;99.90
60727;DHT22;46577;49.004;12.120;2022-11-14T05:36:49;3.70;99.90
60727;DHT22;46577;49.004;12.120;2022-11-14T05:39:15;3.70;99.90
60727;DHT22;46577;49.004;12.120;2022-11-14T05:41:40;3.70;99.90
60727;DHT22;46577;49.004;12.120;2022-11-14T05:44:06;3.80;99.90
60727;DHT22;46577;49.004;12.120;2022-11-14T05:46:32;3.80;99.90
60727;DHT22;46577;49.004;12.120;2022-11-14T05:48:57;3.70;99.90
60727;DHT22;46577;49.004;12.120;2022-11-14T05:51:23;3.70;99.90
60727;DHT22;46577;49.004;12.120;2022-11-14T05:53:48;3.60;99.90
60727;DHT22;46577;49.004;12.120;2022-11-14T05:56:14;3.70;99.90
60727;DHT22;46577;49.004;12.120;2022-11-14T05:58:40;3.70;99.90
60727;DHT22;46577;49.004;12.120;2022-11-14T06:01:07;3.70;99.90
60727;DHT22;46577;49.004;12.120;2022-11-14T06:03:34;3.70;99.90
60727;DHT22;46577;49.004;12.120;2022-11-14T06:06:01;3.70;99.90
60727;DHT22;46577;49.004;12.120;2022-11-14T06:08:28;3.70;99.90
60727;DHT22;46577;49.004;12.120;2022-11-14T06:10:54;3.70;99.90
60727;DHT22;46577;49.004;12.120;2022-11-14T06:13:20;3.70;99.90
60727;DHT22;46577;49.004;12.120;2022-11-14T06:15:48;3.70;99.90
60727;DHT22;46577;49.004;12.120;2022-11-14T06:18:13;3.60;99.90
60727;DHT22;46577;49.004;12.120;2022-11-14T06:20:39;3.40;99.90
60727;DHT22;46577;49.004;12.120;2022-11-14T06:23:04;3.50;99.90
60727;DHT22;46577;49.004;12.120;2022-11-14T06:25:30;3.50;99.90
60727;DHT22;46577;49.004;12.120;2022-11-14T06:27:57;3.50;99.90
60727;DHT22;46577;49.004;12.120;2022-11-14T06:30:23;3.40;99.90
60727;DHT22;46577;49.004;12.120;2022-11-14T06:32:48;3.40;99.90
60727;DHT22;46577;49.004;12.120;2022-11-14T06:35:14;3.50;99.90
60727;DHT22;46577;49.004;12.120;2022-11-14T06:37:39;3.50;99.90
60727;DHT22;46577;49.004;12.120;2022-11-14T06:40:06;3.60;99.90
60727;DHT22;46577;49.004;12.120;2022-11-14T06:42:31;3.60;99.90
60727;DHT22;46577;49.004;12.120;2022-11-14T06:44:57;3.70;99.90
60727;DHT22;46577;49.004;12.120;2022-11-14T06:47:23;3.80;99.90
60727;DHT22;46577;49.004;12.120;2022-11-14T06:49:48;3.80;99.90
60727;DHT22;46577;49.004;12.120;2022-11-14T06:52:14;3.90;99.90
60727;DHT22;46577;49.004;12.120;2022-11-14T06:54:39;3.90;99.90
60727;DHT22;46577;49.004;12.120;2022-11-14T06:57:05;3.90;99.90
60727;DHT22;46577;49.004;12.120;2022-11-14T06:59:30;3.90;99.90
60727;DHT22;46577;49.004;12.120;2022-11-14T07:01:56;4.00;99.90
60727;DHT22;46577;49.004;12.120;2022-11-14T07:04:21;4.10;99.90
60727;DHT22;46577;49.004;12.120;2022-11-14T07:06:47;4.10;99.90
60727;DHT22;46577;49.004;12.120;2022-11-14T07:09:12;4.10;99.90
60727;DHT22;46577;49.004;12.120;2022-11-14T07:11:38;4.20;99.90
60727;DHT22;46577;49.004;12.120;2022-11-14T07:14:04;4.30;99.90
60727;DHT22;46577;49.004;12.120;2022-11-14T07:16:33;4.40;99.90
60727;DHT22;46577;49.004;12.120;2022-11-14T07:19:00;4.40;99.90
60727;DHT22;46577;49.004;12.120;2022-11-14T07:21:29;4.40;99.90
60727;DHT22;46577;49.004;12.120;2022-11-14T07:23:55;4.50;99.90
60727;DHT22;46577;49.004;12.120;2022-11-14T07:26:21;4.60;99.90
60727;DHT22;46577;49.004;12.120;2022-11-14T07:28:47;4.70;99.90
60727;DHT22;46577;49.004;12.120;2022-11-14T07:31:15;4.90;99.90
60727;DHT22;46577;49.004;12.120;2022-11-14T07:33:42;4.90;99.90
60727;DHT22;46577;49.004;12.120;2022-11-14T07:36:09;5.00;99.90
60727;DHT22;46577;49.004;12.120;2022-11-14T07:38:35;5.10;99.90
60727;DHT22;46577;49.004;12.120;2022-11-14T07:41:03;5.20;99.90
60727;DHT22;46577;49.004;12.120;2022-11-14T07:43:29;5.30;99.90
60727;DHT22;46577;49.004;12.120;2022-11-14T07:46:02;5.40;99.90
60727;DHT22;46577;49.004;12.120;2022-11-14T07:48:29;5.50;99.90
60727;DHT22;46577;49.004;12.120;2022-11-14T07:51:04;5.60;99.90
60727;DHT22;46577;49.004;12.120;2022-11-14T07:53:30;5.70;99.90
60727;DHT22;46577;49.004;12.120;2022-11-14T07:56:00;5.80;99.90
60727;DHT22;46577;49.004;12.120;2022-11-14T07:58:26;5.90;99.90
60727;DHT22;46577;49.004;12.120;2022-11-14T08:00:51;6.10;99.90
60727;DHT22;46577;49.004;12.120;2022-11-14T08:03:17;6.10;99.90
60727;DHT22;46577;49.004;12.120;2022-11-14T08:05:43;6.30;99.90
60727;DHT22;46577;49.004;12.120;2022-11-14T08:08:08;6.40;99.90
60727;DHT22;46577;49.004;12.120;2022-11-14T08:10:34;8.50;99.90
60727;DHT22;46577;49.004;12.120;2022-11-14T08:13:01;6.70;99.90
60727;DHT22;46577;49.004;12.120;2022-11-14T08:15:28;6.80;99.90
60727;DHT22;46577;49.004;12.120;2022-11-14T08:17:58;7.00;99.90
60727;DHT22;46577;49.004;12.120;2022-11-14T08:20:24;7.20;99.90
60727;DHT22;46577;49.004;12.120;2022-11-14T08:22:54;7.60;99.90
60727;DHT22;46577;49.004;12.120;2022-11-14T08:25:25;8.20;99.90
60727;DHT22;46577;49.004;12.120;2022-11-14T08:27:52;8.90;99.90
60727;DHT22;46577;49.004;12.120;2022-11-14T08:30:18;8.40;99.90
60727;DHT22;46577;49.004;12.120;2022-11-14T08:32:43;10.10;99.90
60727;DHT22;46577;49.004;12.120;2022-11-14T08:35:09;10.50;99.90
60727;DHT22;46577;49.004;12.120;2022-11-14T08:37:35;11.00;99.90
60727;DHT22;46577;49.004;12.120;2022-11-14T08:40:00;11.40;99.90
60727;DHT22;46577;49.004;12.120;2022-11-14T08:42:26;11.80;99.90
60727;DHT22;46577;49.004;12.120;2022-11-14T08:44:51;12.20;99.90
60727;DHT22;46577;49.004;12.120;2022-11-14T08:47:17;12.50;99.90
60727;DHT22;46577;49.004;12.120;2022-11-14T08:49:43;12.70;99.90
60727;DHT22;46577;49.004;12.120;2022-11-14T08:52:08;12.80;99.90
60727;DHT22;46577;49.004;12.120;2022-11-14T08:54:34;12.70;99.90
60727;DHT22;46577;49.004;12.120;2022-11-14T08:56:59;12.70;99.90
60727;DHT22;46577;49.004;12.120;2022-11-14T08:59:25;12.70;99.70
60727;DHT22;46577;49.004;12.120;2022-11-14T09:01:51;12.80;99.40
60727;DHT22;46577;49.004;12.120;2022-11-14T09:04:16;12.70;99.70
60727;DHT22;46577;49.004;12.120;2022-11-14T09:06:42;12.60;99.20
60727;DHT22;46577;49.004;12.120;2022-11-14T09:09:07;12.40;99.50
60727;DHT22;46577;49.004;12.120;2022-11-14T09:11:33;12.40;99.90
60727;DHT22;46577;49.004;12.120;2022-11-14T09:13:59;11.80;99.00
60727;DHT22;46577;49.004;12.120;2022-11-14T09:16:25;12.90;99.30
60727;DHT22;46577;49.004;12.120;2022-11-14T09:18:51;13.10;99.20
60727;DHT22;46577;49.004;12.120;2022-11-14T09:21:16;13.40;99.00
60727;DHT22;46577;49.004;12.120;2022-11-14T09:23:42;13.70;98.60
60727;DHT22;46577;49.004;12.120;2022-11-14T09:26:09;14.20;97.50
60727;DHT22;46577;49.004;12.120;2022-11-14T09:28:35;14.50;96.80
60727;DHT22;46577;49.004;12.120;2022-11-14T09:31:09;14.70;96.10
60727;DHT22;46577;49.004;12.120;2022-11-14T09:33:35;15.10;96.00
60727;DHT22;46577;49.004;12.120;2022-11-14T09:36:03;15.40;94.40
60727;DHT22;46577;49.004;12.120;2022-11-14T09:38:29;15.50;94.20
60727;DHT22;46577;49.004;12.120;2022-11-14T09:46:18;15.70;92.10
60727;DHT22;46577;49.004;12.120;2022-11-14T09:48:45;15.70;92.20
60727;DHT22;46577;49.004;12.120;2022-11-14T09:51:31;16.00;92.40
60727;DHT22;46577;49.004;12.120;2022-11-14T09:54:20;16.10;90.40
60727;DHT22;46577;49.004;12.120;2022-11-14T09:56:47;16.00;90.40
60727;DHT22;46577;49.004;12.120;2022-11-14T09:59:13;16.00;90.00
60727;DHT22;46577;49.004;12.120;2022-11-14T10:02:00;15.80;90.20
60727;DHT22;46577;49.004;12.120;2022-11-14T10:27:04;17.10;84.10
60727;DHT22;46577;49.004;12.120;2022-11-14T10:35:59;17.30;83.30
60727;DHT22;46577;49.004;12.120;2022-11-14T10:38:42;17.50;83.00
60727;DHT22;46577;49.004;12.120;2022-11-14T10:41:12;17.60;80.80
60727;DHT22;46577;49.004;12.120;2022-11-14T10:43:39;17.70;80.70
60727;DHT22;46577;49.004;12.120;2022-11-14T10:46:19;18.00;78.10
60727;DHT22;46577;49.004;12.120;2022-11-14T10:48:49;18.20;74.90
60727;DHT22;46577;49.004;12.120;2022-11-14T10:54:16;17.90;73.90
60727;DHT22;46577;49.004;12.120;2022-11-14T10:56:49;17.30;75.80
60727;DHT22;46577;49.004;12.120;2022-11-14T10:59:15;16.70;77.90
60727;DHT22;46577;49.004;12.120;2022-11-14T11:09:31;16.60;80.40
60727;DHT22;46577;49.004;12.120;2022-11-14T11:12:20;16.60;80.20
60727;DHT22;46577;49.004;12.120;2022-11-14T11:14:48;16.70;80.60
60727;DHT22;46577;49.004;12.120;2022-11-14T11:17:20;16.80;80.00
60727;DHT22;46577;49.004;12.120;2022-11-14T11:19:46;17.00;81.50
60727;DHT22;46577;49.004;12.120;2022-11-14T11:22:45;17.40;79.30
60727;DHT22;46577;49.004;12.120;2022-11-14T11:25:28;17.70;77.90
60727;DHT22;46577;49.004;12.120;2022-11-14T11:28:03;18.00;77.60
60727;DHT22;46577;49.004;12.120;2022-11-14T11:30:30;18.10;75.80
60727;DHT22;46577;49.004;12.120;2022-11-14T11:32:56;18.10;76.10
60727;DHT22;46577;49.004;12.120;2022-11-14T11:35:22;18.00;76.30
60727;DHT22;46577;49.004;12.120;2022-11-14T11:37:58;18.30;76.00
60727;DHT22;46577;49.004;12.120;2022-11-14T11:40:28;18.40;74.80
60727;DHT22;46577;49.004;12.120;2022-11-14T11:43:01;18.50;74.50
60727;DHT22;46577;49.004;12.120;2022-11-14T11:45:32;18.60;73.80
60727;DHT22;46577;49.004;12.120;2022-11-14T11:48:20;18.30;74.60
60727;DHT22;46577;49.004;12.120;2022-11-14T11:50:47;18.10;75.30
60727;DHT22;46577;49.004;12.120;2022-11-14T11:53:35;18.10;75.60
60727;DHT22;46577;49.004;12.120;2022-11-14T11:56:16;18.00;75.30
60727;DHT22;46577;49.004;12.120;2022-11-14T11:58:54;17.90;75.00
60727;DHT22;46577;49.004;12.120;2022-11-14T12:01:21;17.70;75.80
60727;DHT22;46577;49.004;12.120;2022-11-14T12:03:48;17.50;76.60
60727;DHT22;46577;49.004;12.120;2022-11-14T12:06:23;17.30;77.80
60727;DHT22;46577;49.004;12.120;2022-11-14T12:09:21;17.20;78.20
60727;DHT22;46577;49.004;12.120;2022-11-14T12:12:01;17.50;79.30
60727;DHT22;46577;49.004;12.120;2022-11-14T12:22:49;17.40;78.00
60727;DHT22;46577;49.004;12.120;2022-11-14T12:30:48;17.80;78.20
60727;DHT22;46577;49.004;12.120;2022-11-14T12:33:53;18.30;76.50
60727;DHT22;46577;49.004;12.120;2022-11-14T12:36:30;19.10;75.40
60727;DHT22;46577;49.004;12.120;2022-11-14T12:38:57;19.60;72.20
60727;DHT22;46577;49.004;12.120;2022-11-14T12:41:28;19.90;67.10
60727;DHT22;46577;49.004;12.120;2022-11-14T13:00:24;19.10;68.70
60727;DHT22;46577;49.004;12.120;2022-11-14T13:05:32;18.60;70.20
60727;DHT22;46577;49.004;12.120;2022-11-14T13:10:39;18.30;71.70
60727;DHT22;46577;49.004;12.120;2022-11-14T13:13:10;18.20;72.10
60727;DHT22;46577;49.004;12.120;2022-11-14T13:15:56;18.00;73.50
60727;DHT22;46577;49.004;12.120;2022-11-14T13:19:02;17.90;74.30
60727;DHT22;46577;49.004;12.120;2022-11-14T13:29:51;16.40;81.90
60727;DHT22;46577;49.004;12.120;2022-11-14T13:51:30;14.60;86.50
60727;DHT22;46577;49.004;12.120;2022-11-14T13:53:56;14.50;87.20
60727;DHT22;46577;49.004;12.120;2022-11-14T13:56:34;14.40;87.80
60727;DHT22;46577;49.004;12.120;2022-11-14T13:59:06;14.20;88.60
60727;DHT22;46577;49.004;12.120;2022-11-14T14:01:50;14.20;89.60
60727;DHT22;46577;49.004;12.120;2022-11-14T14:07:50;14.00;90.40
60727;DHT22;46577;49.004;12.120;2022-11-14T14:10:41;13.80;90.80
60727;DHT22;46577;49.004;12.120;2022-11-14T14:21:33;13.60;91.60
60727;DHT22;46577;49.004;12.120;2022-11-14T14:32:41;13.60;91.30
60727;DHT22;46577;49.004;12.120;2022-11-14T14:35:33;13.60;91.70
60727;DHT22;46577;49.004;12.120;2022-11-14T14:38:00;13.60;91.90
60727;DHT22;46577;49.004;12.120;2022-11-14T14:40:30;13.50;91.90
60727;DHT22;46577;49.004;12.120;2022-11-14T14:42:59;13.60;92.10
60727;DHT22;46577;49.004;12.120;2022-11-14T14:45:26;13.50;92.40
60727;DHT22;46577;49.004;12.120;2022-11-14T14:48:04;13.40;93.40
60727;DHT22;46577;49.004;12.120;2022-11-14T14:50:53;13.30;94.30
60727;DHT22;46577;49.004;12.120;2022-11-14T14:55:58;13.00;95.30
60727;DHT22;46577;49.004;12.120;2022-11-14T14:58:32;12.90;95.70
60727;DHT22;46577;49.004;12.120;2022-11-14T15:01:03;12.80;96.30
60727;DHT22;46577;49.004;12.120;2022-11-14T15:03:34;12.70;97.10
60727;DHT22;46577;49.004;12.120;2022-11-14T15:06:03;12.60;98.00
60727;DHT22;46577;49.004;12.120;2022-11-14T15:08:34;12.50;98.10
60727;DHT22;46577;49.004;12.120;2022-11-14T15:11:01;12.50;98.20
60727;DHT22;46577;49.004;12.120;2022-11-14T15:13:28;12.50;98.20
60727;DHT22;46577;49.004;12.120;2022-11-14T15:15:55;12.50;98.30
60727;DHT22;46577;49.004;12.120;2022-11-14T15:18:31;12.50;98.40
60727;DHT22;46577;49.004;12.120;2022-11-14T15:23:31;12.50;98.80
60727;DHT22;46577;49.004;12.120;2022-11-14T15:26:10;12.80;99.10
60727;DHT22;46577;49.004;12.120;2022-11-14T15:28:36;12.20;99.30
60727;DHT22;46577;49.004;12.120;2022-11-14T15:31:03;12.00;99.60
60727;DHT22;46577;49.004;12.120;2022-11-14T15:33:33;11.90;99.80
60727;DHT22;46577;49.004;12.120;2022-11-14T15:38:31;11.90;99.90
60727;DHT22;46577;49.004;12.120;2022-11-14T15:41:19;11.80;99.90
60727;DHT22;46577;49.004;12.120;2022-11-14T15:46:41;11.80;99.90
60727;DHT22;46577;49.004;12.120;2022-11-14T15:51:49;11.50;99.90
60727;DHT22;46577;49.004;12.120;2022-11-14T15:54:24;11.40;99.90
60727;DHT22;46577;49.004;12.120;2022-11-14T15:56:50;11.40;99.90
60727;DHT22;46577;49.004;12.120;2022-11-14T15:59:16;11.20;99.90
60727;DHT22;46577;49.004;12.120;2022-11-14T16:01:43;11.30;99.90
60727;DHT22;46577;49.004;12.120;2022-11-14T16:04:17;11.20;99.90
60727;DHT22;46577;49.004;12.120;2022-11-14T16:06:42;11.10;99.90
60727;DHT22;46577;49.004;12.120;2022-11-14T16:09:19;11.00;99.90
60727;DHT22;46577;49.004;12.120;2022-11-14T16:11:46;11.00;99.90
60727;DHT22;46577;49.004;12.120;2022-11-14T16:14:12;10.90;99.90
60727;DHT22;46577;49.004;12.120;2022-11-14T16:16:38;10.70;99.90
60727;DHT22;46577;49.004;12.120;2022-11-14T16:19:04;10.70;99.90
60727;DHT22;46577;49.004;12.120;2022-11-14T16:21:30;10.60;99.90
60727;DHT22;46577;49.004;12.120;2022-11-14T16:23:56;10.60;99.90
60727;DHT22;46577;49.004;12.120;2022-11-14T16:26:22;10.50;99.90
60727;DHT22;46577;49.004;12.120;2022-11-14T16:28:50;10.50;99.90
60727;DHT22;46577;49.004;12.120;2022-11-14T16:31:16;10.50;99.90
60727;DHT22;46577;49.004;12.120;2022-11-14T16:33:42;10.50;99.90
60727;DHT22;46577;49.004;12.120;2022-11-14T16:36:10;10.40;99.90
60727;DHT22;46577;49.004;12.120;2022-11-14T16:38:36;10.40;99.90
60727;DHT22;46577;49.004;12.120;2022-11-14T16:41:05;10.40;99.90
60727;DHT22;46577;49.004;12.120;2022-11-14T16:43:31;10.40;99.90
60727;DHT22;46577;49.004;12.120;2022-11-14T16:48:23;10.30;99.90
60727;DHT22;46577;49.004;12.120;2022-11-14T16:50:48;10.30;99.90
60727;DHT22;46577;49.004;12.120;2022-11-14T16:53:14;10.20;99.90
60727;DHT22;46577;49.004;12.120;2022-11-14T16:55:43;10.10;99.90
60727;DHT22;46577;49.004;12.120;2022-11-14T17:00:35;10.00;99.90
60727;DHT22;46577;49.004;12.120;2022-11-14T17:03:01;10.00;99.90
60727;DHT22;46577;49.004;12.120;2022-11-14T17:05:26;10.00;99.90
60727;DHT22;46577;49.004;12.120;2022-11-14T17:07:52;10.00;99.90
60727;DHT22;46577;49.004;12.120;2022-11-14T17:10:19;9.90;99.90
60727;DHT22;46577;49.004;12.120;2022-11-14T17:12:45;10.00;99.90
60727;DHT22;46577;49.004;12.120;2022-11-14T17:15:10;9.90;99.90
60727;DHT22;46577;49.004;12.120;2022-11-14T17:17:36;9.90;99.90
60727;DHT22;46577;49.004;12.120;2022-11-14T17:20:02;9.80;99.90
60727;DHT22;46577;49.004;12.120;2022-11-14T17:22:27;9.80;99.90
60727;DHT22;46577;49.004;12.120;2022-11-14T17:24:53;9.80;99.90
60727;DHT22;46577;49.004;12.120;2022-11-14T17:27:18;9.80;99.90
60727;DHT22;46577;49.004;12.120;2022-11-14T17:29:44;9.80;99.90
60727;DHT22;46577;49.004;12.120;2022-11-14T17:32:10;9.70;99.90
60727;DHT22;46577;49.004;12.120;2022-11-14T17:34:36;9.60;99.90
60727;DHT22;46577;49.004;12.120;2022-11-14T17:37:02;9.50;99.90
60727;DHT22;46577;49.004;12.120;2022-11-14T17:39:27;9.60;99.90
60727;DHT22;46577;49.004;12.120;2022-11-14T17:41:54;9.50;99.90
60727;DHT22;46577;49.004;12.120;2022-11-14T17:44:19;9.50;99.90
60727;DHT22;46577;49.004;12.120;2022-11-14T17:46:46;9.60;99.90
60727;DHT22;46577;49.004;12.120;2022-11-14T17:49:11;9.40;99.90
60727;DHT22;46577;49.004;12.120;2022-11-14T17:51:37;9.30;99.90
60727;DHT22;46577;49.004;12.120;2022-11-14T17:54:03;9.20;99.90
60727;DHT22;46577;49.004;12.120;2022-11-14T17:56:28;8.80;99.90
60727;DHT22;46577;49.004;12.120;2022-11-14T17:58:54;8.70;99.90
60727;DHT22;46577;49.004;12.120;2022-11-14T18:01:21;8.60;99.90